19:03
Airports
History
Links
Donate
Help keep this website running!
PayPal
Bitcoin
This page is community maintained. The information is intended for PC simulator navigation or reference.
Always use approved charts for navigation.
SNRN
Rio Tinto
Rio Tinto (SNRN)
Rio Tinto, Paraíba, Brazil (58297)
(C)
Lat/Lng:6° 47' 30" S / 35° 6' 6" W
-6.791667 / -35.101666
Elevation:420'ft / 128mMSL
ID / ICAO:SNRN
Runways:1
Longest:14-32
Concrete 998m / 3,274ft
Controlled:Yes
Nearby Weather18:00 GMT 2017-12-11
Nearby weather at SBJP, Presidente Castro Pinto located 26.7 nautical miles from SNRN
Altimeter: 29.85
Visibility: 6.2 statute miles
Wind: 10 knots (from 060°)
Temp: 29°c / 84°f
Humidity: 62.1%

METAR: SBJP 111800Z 06010KT 9999 FEW030 29/21 Q1011

(Powered by phpweather)
Runway 14 / 32
Dimensions:997.8 x 14.3m 3274' x 47'ft
Surface:Concrete
Edge Lights:Medium intensity
Runway 14 [A]Runway 32 [B]
Heading:117°TH 297°TH
Lat:
Lng:
6° 47' 22.4"S
35° 6' 20.4"W
6° 47' 37.6"S
35° 5' 51.6"W
ALS:MALSMALS
User Notes and Comments
6° 47' 30" S / 35° 6' 6" W
Distance To
Airport ID:
Nearby Airports
(C) Presidente Castro Pinto 26.7 NM
SBJP ( WX ) SSE 157°
(U) Senador Antonio Farias 26.8 NM
SIQA N
(U) JOAO PESSOA AEROCLUBE 27.4 NM
SNJO SE 139°
(U) Tabuleiro 36.9 NM
SJFU W 280°
(U) Cimento Poty 53.7 NM
SIXW SSE 162°
4 Severino Lopes 54.2 NM
SJBX N 349°
(C) Augusto Severo 61.7 NM
SBNT ( WX ) N 350°
VFR Chart
Flight Planning at SkyVector.com